Time;durP1;ratioP1;P1;durP2;ratioP2;P2;SDS_P1;SDS_P2;PMS_P1;PMS_P2;Temp;Humidity;BMP_temperature;BMP_pressure;BME280_temperature;BME280_humidity;BME280_pressure;Samples;Min_cycle;Max_cycle;Signal;HPM_P1;HPM_P2
2022/12/26 00:01:56;;;;;;;23.08;8.25;;;8.30;99.90;;;;;;5015197;28;20046;-68
2022/12/26 00:04:22;;;;;;;22.77;7.82;;;8.30;99.90;;;;;;5008297;28;20086;-68
2022/12/26 00:06:48;;;;;;;19.33;8.55;;;8.30;99.90;;;;;;5008574;28;20084;-68
2022/12/26 00:09:16;;;;;;;20.63;8.43;;;8.30;99.90;;;;;;5008717;28;20086;-68
2022/12/26 00:11:42;;;;;;;20.38;7.75;;;8.40;99.90;;;;;;5008554;28;20057;-68
2022/12/26 00:14:10;;;;;;;;;;;8.40;99.90;;;;;;5008528;28;20116;-68
2022/12/26 00:16:37;;;;;;;19.08;7.72;;;8.40;99.90;;;;;;5007893;28;19946;-68
2022/12/26 00:19:03;;;;;;;21.25;8.05;;;8.40;99.90;;;;;;5008699;28;20511;-68
2022/12/26 00:21:30;;;;;;;22.40;8.23;;;8.30;99.90;;;;;;5007585;28;20046;-68
2022/12/26 00:23:57;;;;;;;18.33;7.22;;;8.30;99.90;;;;;;5009002;28;20045;-68
2022/12/26 00:26:26;;;;;;;25.63;7.40;;;8.30;99.90;;;;;;5019559;28;20052;-68
2022/12/26 00:28:53;;;;;;;21.13;7.78;;;8.30;99.90;;;;;;5023683;28;20041;-68
2022/12/26 00:31:29;;;;;;;16.83;6.65;;;8.30;99.90;;;;;;5007266;28;20054;-68
2022/12/26 00:33:55;;;;;;;17.27;6.97;;;8.40;99.90;;;;;;5008683;28;20046;-68
2022/12/26 00:36:21;;;;;;;;;;;8.30;99.90;;;;;;5026387;28;20037;-69
2022/12/26 00:38:47;;;;;;;33.88;7.85;;;8.30;99.90;;;;;;5022053;28;19924;-68
2022/12/26 00:41:15;;;;;;;21.08;7.28;;;8.30;99.90;;;;;;5007551;28;20042;-69
2022/12/26 00:43:40;;;;;;;14.77;6.70;;;8.30;99.90;;;;;;5008641;28;20073;-68
2022/12/26 00:46:06;;;;;;;15.45;6.90;;;8.30;99.90;;;;;;5008324;28;20483;-68
2022/12/26 00:48:32;;;;;;;14.75;6.10;;;8.30;99.90;;;;;;5007192;28;20653;-68
2022/12/26 00:50:58;;;;;;;15.50;6.90;;;8.30;99.90;;;;;;5008041;28;20625;-68
2022/12/26 00:53:24;;;;;;;17.02;7.45;;;8.30;99.90;;;;;;5007644;28;20038;-67
2022/12/26 00:55:51;;;;;;;15.52;6.95;;;8.30;99.90;;;;;;5008276;28;20137;-68
2022/12/26 00:58:17;;;;;;;15.45;6.18;;;8.30;99.90;;;;;;4990032;28;20053;-68
2022/12/26 01:00:43;;;;;;;16.23;6.07;;;8.30;99.90;;;;;;5007913;28;20596;-69
2022/12/26 01:03:10;;;;;;;15.05;6.38;;;8.30;99.90;;;;;;4989724;28;20132;-68
2022/12/26 01:05:43;;;;;;;14.07;6.07;;;8.30;99.90;;;;;;5007733;28;20049;-69
2022/12/26 01:08:09;;;;;;;14.57;5.70;;;8.30;99.90;;;;;;5020539;28;20041;-68
2022/12/26 01:10:35;;;;;;;;;;;8.40;99.90;;;;;;5027847;28;20948;-68
2022/12/26 01:13:01;;;;;;;15.27;6.00;;;8.40;99.90;;;;;;5027218;28;20008;-68
2022/12/26 01:15:27;;;;;;;11.75;5.50;;;8.30;99.90;;;;;;5026165;28;20497;-68
2022/12/26 01:17:52;;;;;;;13.90;5.97;;;8.30;99.90;;;;;;5007417;28;20075;-68
2022/12/26 01:20:18;;;;;;;14.20;5.93;;;8.30;99.90;;;;;;5007783;28;20421;-68
2022/12/26 01:22:44;;;;;;;13.50;6.03;;;8.30;99.90;;;;;;5007001;28;20046;-68
2022/12/26 01:25:11;;;;;;;14.65;6.15;;;8.30;99.90;;;;;;5025611;28;20048;-68
2022/12/26 01:27:36;;;;;;;14.88;6.43;;;8.30;99.90;;;;;;5026720;28;20085;-68
2022/12/26 01:30:03;;;;;;;14.93;5.80;;;8.30;99.90;;;;;;5027208;28;20076;-67
2022/12/26 01:32:28;;;;;;;;;;;8.30;99.90;;;;;;5009744;28;20049;-68
2022/12/26 01:34:55;;;;;;;13.98;5.72;;;8.30;99.90;;;;;;5008194;28;19925;-67
2022/12/26 01:37:22;;;;;;;13.57;6.03;;;8.40;99.90;;;;;;5006653;28;20388;-68
2022/12/26 01:39:48;;;;;;;16.13;5.80;;;8.30;99.90;;;;;;5007756;28;20054;-68
2022/12/26 01:42:15;;;;;;;;;;;8.40;99.90;;;;;;5025687;28;20070;-68
2022/12/26 01:45:16;;;;;;;13.57;6.07;;;8.30;99.90;;;;;;5026407;28;19921;-68
2022/12/26 01:47:54;;;;;;;14.75;5.65;;;8.40;99.90;;;;;;5008790;28;20056;-68
2022/12/26 01:50:28;;;;;;;15.35;6.03;;;8.40;99.90;;;;;;5027162;28;20053;-69
2022/12/26 01:52:58;;;;;;;21.77;6.57;;;8.40;99.90;;;;;;5026593;28;20146;-68
2022/12/26 01:55:26;;;;;;;16.48;5.82;;;8.40;99.90;;;;;;5025183;28;20649;-68
2022/12/26 01:58:00;;;;;;;16.95;6.85;;;8.40;99.90;;;;;;5011754;28;20512;-68
2022/12/26 02:00:26;;;;;;;17.17;6.55;;;8.40;99.90;;;;;;5017032;28;20391;-67
2022/12/26 02:05:38;;;;;;;20.08;6.80;;;8.40;99.90;;;;;;5026885;28;19917;-67
2022/12/26 02:08:20;;;;;;;17.35;7.15;;;8.40;99.90;;;;;;5026188;28;20509;-67
2022/12/26 02:11:04;;;;;;;17.60;7.63;;;8.40;99.90;;;;;;5012402;28;20046;-67
2022/12/26 02:13:30;;;;;;;23.50;8.23;;;8.40;99.90;;;;;;4989002;28;20129;-67
2022/12/26 02:15:56;;;;;;;20.67;8.10;;;8.40;99.90;;;;;;5009402;28;20121;-67
2022/12/26 02:18:22;;;;;;;24.38;8.52;;;8.50;99.90;;;;;;5011455;28;20491;-69
2022/12/26 02:21:19;;;;;;;23.13;8.13;;;8.40;99.90;;;;;;5010232;28;20052;-67
2022/12/26 02:23:54;;;;;;;26.05;9.48;;;8.40;99.90;;;;;;5031395;28;20436;-67
2022/12/26 02:27:10;;;;;;;26.88;10.68;;;8.40;99.90;;;;;;5029866;28;20042;-67
2022/12/26 02:29:59;;;;;;;22.50;9.20;;;8.50;99.90;;;;;;5049885;28;20438;-67
2022/12/26 02:32:44;;;;;;;24.38;9.93;;;8.40;99.90;;;;;;5028248;28;20092;-68
2022/12/26 02:35:31;;;;;;;25.20;10.75;;;8.50;99.90;;;;;;5010532;28;20573;-67
2022/12/26 02:38:33;;;;;;;23.70;10.10;;;8.50;99.90;;;;;;5009824;28;20049;-67
2022/12/26 02:41:31;;;;;;;25.05;10.82;;;8.50;99.90;;;;;;5012057;28;20391;-67
2022/12/26 02:43:59;;;;;;;22.88;9.45;;;8.50;99.90;;;;;;5015300;28;20050;-68
2022/12/26 03:13:18;;;;;;;29.50;11.05;;;8.60;99.90;;;;;;5029007;28;20052;-67
2022/12/26 03:18:41;;;;;;;30.08;10.90;;;8.60;99.90;;;;;;5029102;28;20287;-67
2022/12/26 03:21:08;;;;;;;25.88;9.73;;;8.70;99.90;;;;;;5027622;28;20049;-67
2022/12/26 03:23:38;;;;;;;34.20;12.23;;;8.70;99.90;;;;;;5009284;28;20356;-67
2022/12/26 03:31:45;;;;;;;30.92;11.85;;;8.70;99.90;;;;;;5008122;28;20053;-68
2022/12/26 03:34:18;;;;;;;33.90;11.43;;;8.70;99.90;;;;;;5011987;28;20034;-67
2022/12/26 03:37:11;;;;;;;30.90;10.90;;;8.70;99.90;;;;;;5008503;28;20519;-68
2022/12/26 04:41:34;;;;;;;29.65;10.88;;;8.60;99.90;;;;;;5008358;28;20100;-67
2022/12/26 04:44:22;;;;;;;26.85;8.75;;;8.70;99.90;;;;;;5008264;28;20578;-68
2022/12/26 04:46:48;;;;;;;27.65;9.45;;;8.70;99.90;;;;;;5010616;28;20494;-68
2022/12/26 04:52:01;;;;;;;26.15;9.82;;;8.70;99.90;;;;;;5007442;28;20057;-68
2022/12/26 04:54:27;;;;;;;28.83;9.93;;;8.80;99.90;;;;;;5089375;28;20061;-68
2022/12/26 04:56:53;;;;;;;27.48;11.57;;;8.80;99.90;;;;;;5023398;28;20050;-67
2022/12/26 04:59:20;;;;;;;26.20;9.98;;;8.80;99.90;;;;;;5008409;28;20061;-68
2022/12/26 05:10:06;;;;;;;26.23;10.00;;;8.70;99.90;;;;;;4990326;28;20061;-67
2022/12/26 05:12:31;;;;;;;26.55;10.70;;;8.60;99.90;;;;;;5007625;28;20050;-67
2022/12/26 05:14:57;;;;;;;30.30;10.65;;;8.60;99.90;;;;;;5008112;28;20046;-68
2022/12/26 05:28:40;;;;;;;29.17;10.63;;;8.60;99.90;;;;;;5007425;28;20209;-68
2022/12/26 05:31:10;;;;;;;25.95;10.73;;;8.60;99.90;;;;;;5007184;28;20149;-68
2022/12/26 05:36:23;;;;;;;25.75;10.32;;;8.70;99.90;;;;;;5009054;28;20057;-67
2022/12/26 05:38:48;;;;;;;25.45;10.63;;;8.60;99.90;;;;;;5011797;28;20095;-68
2022/12/26 05:41:15;;;;;;;25.67;10.45;;;8.70;99.90;;;;;;5008521;28;20050;-67
2022/12/26 05:43:40;;;;;;;26.05;9.80;;;8.60;99.90;;;;;;5027396;28;20125;-68
2022/12/26 05:46:06;;;;;;;32.15;11.00;;;8.70;99.90;;;;;;5026308;28;20120;-68
2022/12/26 05:48:32;;;;;;;25.90;11.45;;;8.60;99.90;;;;;;5026853;28;20106;-67
2022/12/26 05:51:02;;;;;;;25.90;10.05;;;8.60;99.90;;;;;;5026179;28;20077;-67
2022/12/26 05:53:28;;;;;;;30.85;10.35;;;8.60;99.90;;;;;;5026599;28;20102;-68
2022/12/26 05:55:54;;;;;;;28.10;10.43;;;8.60;99.90;;;;;;5022824;28;20053;-67
2022/12/26 05:58:20;;;;;;;25.40;9.50;;;8.60;99.90;;;;;;5026854;28;20530;-68
2022/12/26 06:00:46;;;;;;;29.42;10.20;;;8.60;99.90;;;;;;5023269;28;20050;-69
2022/12/26 06:03:11;;;;;;;23.33;9.85;;;8.60;99.90;;;;;;5020025;28;20087;-68
2022/12/26 06:05:37;;;;;;;24.77;9.57;;;8.60;99.90;;;;;;5014412;28;20042;-67
2022/12/26 06:08:06;;;;;;;24.95;9.85;;;8.60;99.90;;;;;;5021287;28;20251;-67
2022/12/26 06:10:31;;;;;;;23.55;10.38;;;8.60;99.90;;;;;;5026889;28;20688;-67
2022/12/26 06:13:00;;;;;;;27.52;9.90;;;8.50;99.90;;;;;;5025922;28;20367;-68
2022/12/26 06:15:26;;;;;;;19.85;8.77;;;8.50;99.90;;;;;;5019425;28;20074;-68
2022/12/26 06:17:53;;;;;;;24.15;10.05;;;8.40;99.90;;;;;;5006216;28;20092;-68
2022/12/26 06:20:19;;;;;;;20.10;9.02;;;8.40;99.90;;;;;;5022146;28;20133;-68
2022/12/26 06:22:45;;;;;;;21.85;9.23;;;8.40;99.90;;;;;;5025737;28;20128;-68
2022/12/26 06:25:10;;;;;;;24.65;8.93;;;8.40;99.90;;;;;;5026115;28;20110;-69
2022/12/26 06:27:36;;;;;;;24.63;9.73;;;8.40;99.90;;;;;;5041964;28;20096;-68
2022/12/26 06:30:02;;;;;;;28.58;10.70;;;8.40;99.90;;;;;;5025936;28;20037;-68
2022/12/26 06:32:28;;;;;;;21.88;9.43;;;8.40;99.90;;;;;;5026128;28;20045;-68
2022/12/26 06:34:53;;;;;;;24.55;10.50;;;8.40;99.90;;;;;;5019575;28;22333;-68
2022/12/26 06:37:19;;;;;;;24.00;9.75;;;8.40;99.90;;;;;;5017237;28;20045;-68
2022/12/26 06:39:45;;;;;;;22.13;9.75;;;8.50;99.90;;;;;;5007058;28;20045;-67
2022/12/26 06:42:11;;;;;;;;;;;8.50;99.90;;;;;;5006454;28;20065;-67
2022/12/26 06:44:36;;;;;;;21.63;9.85;;;8.50;99.90;;;;;;5006637;28;19997;-68
2022/12/26 06:47:02;;;;;;;22.83;9.52;;;8.50;99.90;;;;;;5006095;28;20378;-68
2022/12/26 06:49:28;;;;;;;20.05;9.32;;;8.50;99.90;;;;;;5007317;28;20054;-68
2022/12/26 06:51:54;;;;;;;;;;;8.50;99.90;;;;;;5006138;28;20049;-68
2022/12/26 06:54:19;;;;;;;24.48;9.23;;;8.50;99.90;;;;;;5006593;28;19921;-68
2022/12/26 06:56:45;;;;;;;26.63;10.63;;;8.50;99.90;;;;;;4990727;28;20050;-68
2022/12/26 06:59:11;;;;;;;20.83;9.38;;;8.60;99.90;;;;;;5006151;28;20050;-67
2022/12/26 07:01:37;;;;;;;25.00;9.98;;;8.50;99.90;;;;;;5007623;28;20049;-68
2022/12/26 07:04:03;;;;;;;23.05;10.43;;;8.40;99.90;;;;;;4992125;28;20133;-68
2022/12/26 07:06:31;;;;;;;27.45;9.93;;;8.40;99.90;;;;;;5018507;28;20041;-68
2022/12/26 07:09:07;;;;;;;23.33;9.63;;;8.40;99.90;;;;;;5028542;28;20041;-64
2022/12/26 07:11:35;;;;;;;28.13;9.77;;;8.30;99.90;;;;;;5013827;28;20200;-66
2022/12/26 07:14:01;;;;;;;26.13;10.57;;;8.30;99.90;;;;;;5009557;28;20111;-70
2022/12/26 07:16:27;;;;;;;25.70;10.93;;;8.30;99.90;;;;;;5029595;28;20128;-71
2022/12/26 07:18:55;;;;;;;23.33;10.27;;;8.40;99.90;;;;;;5028445;28;20045;-70
2022/12/26 07:21:21;;;;;;;23.15;11.02;;;8.30;99.90;;;;;;5022172;28;20048;-70
2022/12/26 07:23:47;;;;;;;23.35;10.63;;;8.20;99.90;;;;;;5017257;28;20041;-69
2022/12/26 07:26:13;;;;;;;;;;;8.10;99.90;;;;;;5017356;28;20044;-70
2022/12/26 07:28:39;;;;;;;30.95;11.27;;;8.00;99.90;;;;;;5020334;28;19921;-70
2022/12/26 07:31:05;;;;;;;24.75;11.18;;;8.00;99.90;;;;;;5019997;28;20049;-68
2022/12/26 07:33:30;;;;;;;;;;;7.90;99.90;;;;;;5018203;28;20099;-68
2022/12/26 07:36:00;;;;;;;25.65;10.38;;;7.90;99.90;;;;;;5022198;28;19921;-68
2022/12/26 07:38:26;;;;;;;26.13;11.35;;;7.90;99.90;;;;;;5029096;28;20041;-67
2022/12/26 07:40:56;;;;;;;27.40;11.38;;;7.90;99.90;;;;;;5025410;28;20053;-68
2022/12/26 07:43:22;;;;;;;26.33;11.38;;;7.90;99.90;;;;;;5017090;28;20531;-71
2022/12/26 07:45:47;;;;;;;;;;;7.90;99.90;;;;;;5020587;28;20049;-71
2022/12/26 07:48:13;;;;;;;26.13;10.63;;;8.10;99.90;;;;;;4992757;28;19922;-68
2022/12/26 07:50:39;;;;;;;31.88;11.48;;;8.00;99.90;;;;;;5019122;28;20045;-69
2022/12/26 07:53:04;;;;;;;22.90;10.27;;;8.10;99.90;;;;;;5016306;28;20080;-70
2022/12/26 07:55:30;;;;;;;28.83;12.02;;;8.10;99.90;;;;;;5018271;28;20505;-68
2022/12/26 07:57:56;;;;;;;26.73;10.85;;;8.10;99.90;;;;;;5023832;28;20046;-70
2022/12/26 08:00:21;;;;;;;23.73;10.13;;;8.10;99.90;;;;;;5027709;28;20575;-69
2022/12/26 08:02:48;;;;;;;23.55;10.38;;;8.20;99.90;;;;;;5028110;28;20081;-68
2022/12/26 08:05:15;;;;;;;22.23;10.20;;;8.10;99.90;;;;;;5022349;28;20056;-67
2022/12/26 08:07:41;;;;;;;20.50;10.00;;;8.10;99.90;;;;;;5009291;28;20062;-70
2022/12/26 08:10:07;;;;;;;24.48;9.73;;;8.10;99.90;;;;;;5018572;28;20045;-70
2022/12/26 08:12:33;;;;;;;20.88;9.05;;;8.00;99.90;;;;;;5021120;28;20083;-68
2022/12/26 08:14:58;;;;;;;19.77;9.15;;;8.00;99.90;;;;;;5025083;28;20099;-72
2022/12/26 08:17:24;;;;;;;21.58;8.93;;;8.00;99.90;;;;;;5023349;28;20049;-72
2022/12/26 08:19:50;;;;;;;19.73;8.23;;;8.00;99.90;;;;;;5028218;28;20045;-70
2022/12/26 08:22:15;;;;;;;28.92;9.73;;;8.00;99.90;;;;;;5027195;28;20111;-71
2022/12/26 08:24:41;;;;;;;20.48;8.07;;;8.00;99.90;;;;;;5028120;28;20049;-71
2022/12/26 08:27:07;;;;;;;15.98;7.00;;;8.00;99.90;;;;;;5009704;28;20041;-71
2022/12/26 08:29:33;;;;;;;15.93;7.60;;;8.00;99.90;;;;;;5027804;28;20041;-70
2022/12/26 08:31:58;;;;;;;18.45;7.20;;;8.00;99.90;;;;;;5021958;28;20129;-70
2022/12/26 08:34:24;;;;;;;17.05;7.43;;;8.00;99.90;;;;;;5016581;28;20697;-68
2022/12/26 08:36:51;;;;;;;15.60;6.93;;;8.00;99.90;;;;;;5010938;28;20042;-68
2022/12/26 08:39:17;;;;;;;18.02;7.40;;;8.10;99.90;;;;;;5014704;28;20041;-68
2022/12/26 08:41:42;;;;;;;20.20;7.95;;;8.00;99.90;;;;;;5027480;28;20042;-68
2022/12/26 08:44:11;;;;;;;17.52;6.95;;;8.10;99.90;;;;;;5026804;28;20033;-70
2022/12/26 08:46:37;;;;;;;14.63;6.30;;;8.10;99.90;;;;;;5025515;28;20045;-69
2022/12/26 08:49:03;;;;;;;17.08;7.82;;;8.10;99.90;;;;;;5027037;28;20046;-70
2022/12/26 08:51:29;;;;;;;15.23;6.25;;;8.20;99.90;;;;;;5010872;28;20030;-68
2022/12/26 08:53:54;;;;;;;14.55;6.50;;;8.30;99.90;;;;;;5019561;28;20151;-68
2022/12/26 08:56:23;;;;;;;16.10;6.07;;;8.40;99.90;;;;;;5026116;28;20049;-70
2022/12/26 08:58:48;;;;;;;14.93;6.28;;;8.50;99.90;;;;;;5027961;28;20041;-68
2022/12/26 09:01:17;;;;;;;13.50;6.20;;;8.60;99.90;;;;;;5026122;28;20044;-69
2022/12/26 09:03:43;;;;;;;11.70;5.38;;;8.60;99.90;;;;;;5027919;28;20094;-69
2022/12/26 09:06:10;;;;;;;;;;;8.70;99.90;;;;;;5023547;28;20041;-69
2022/12/26 09:08:36;;;;;;;12.40;5.30;;;8.80;99.90;;;;;;5014921;28;19929;-69
2022/12/26 09:11:11;;;;;;;12.05;4.97;;;8.80;99.90;;;;;;5011037;28;20045;-69
2022/12/26 09:13:37;;;;;;;10.52;4.57;;;8.90;99.90;;;;;;5027662;28;20128;-69
2022/12/26 09:16:10;;;;;;;;;;;9.00;99.90;;;;;;5022281;28;20041;-69
2022/12/26 09:18:36;;;;;;;11.55;4.53;;;9.00;99.90;;;;;;5020036;28;20033;-69
2022/12/26 09:21:03;;;;;;;10.65;4.75;;;9.10;99.90;;;;;;5018009;28;20073;-69
2022/12/26 09:23:30;;;;;;;11.15;4.30;;;9.20;99.90;;;;;;5023123;28;20041;-69
2022/12/26 09:26:09;;;;;;;13.18;4.60;;;9.30;99.90;;;;;;5027437;28;20790;-70
2022/12/26 09:28:36;;;;;;;15.48;4.68;;;9.30;99.90;;;;;;5017521;28;20048;-69
2022/12/26 09:31:04;;;;;;;8.02;3.70;;;9.40;99.90;;;;;;5016542;28;20042;-69
2022/12/26 09:33:32;;;;;;;12.35;4.70;;;9.40;99.90;;;;;;5023634;28;20125;-69
2022/12/26 09:35:58;;;;;;;8.27;3.60;;;9.40;99.90;;;;;;5026886;28;20038;-69
2022/12/26 09:38:24;;;;;;;12.30;4.68;;;9.30;99.90;;;;;;5023495;28;20127;-68
2022/12/26 09:41:03;;;;;;;9.57;3.85;;;9.30;99.90;;;;;;5008830;28;20081;-69
2022/12/26 09:44:05;;;;;;;10.38;3.78;;;9.30;99.90;;;;;;5025994;28;20045;-69
2022/12/26 09:46:45;;;;;;;11.57;3.80;;;9.30;99.90;;;;;;5023828;28;20049;-68
2022/12/26 09:49:17;;;;;;;8.73;3.97;;;9.30;99.90;;;;;;5026834;28;20124;-69
2022/12/26 09:51:48;;;;;;;11.45;4.10;;;9.30;99.90;;;;;;5018778;28;20099;-69
2022/12/26 09:54:38;;;;;;;14.30;3.78;;;9.30;99.90;;;;;;5017832;28;20045;-69
2022/12/26 09:57:13;;;;;;;7.30;3.17;;;9.30;99.90;;;;;;5026248;28;20049;-69
2022/12/26 09:59:59;;;;;;;6.50;3.13;;;9.30;99.90;;;;;;5026702;28;20140;-68
2022/12/26 10:02:26;;;;;;;8.07;2.55;;;9.40;99.90;;;;;;4999960;28;20413;-69
2022/12/26 10:04:53;;;;;;;6.55;3.08;;;9.50;99.90;;;;;;5014857;28;20041;-69
2022/12/26 10:07:31;;;;;;;5.10;2.85;;;9.50;99.90;;;;;;5017987;28;20045;-69
2022/12/26 10:10:11;;;;;;;9.32;2.63;;;9.60;99.90;;;;;;5016081;28;20050;-69
2022/12/26 10:12:53;;;;;;;3.58;2.15;;;9.60;99.90;;;;;;5008511;28;20095;-69
2022/12/26 10:15:50;;;;;;;5.05;2.58;;;9.60;99.90;;;;;;5026009;28;20095;-68
2022/12/26 10:18:27;;;;;;;5.68;2.33;;;9.70;99.90;;;;;;5025859;28;20060;-69
2022/12/26 10:21:22;;;;;;;7.88;2.63;;;9.60;99.90;;;;;;5026385;28;20435;-69
2022/12/26 10:23:56;;;;;;;6.28;2.45;;;9.60;99.90;;;;;;5026871;28;20033;-69
2022/12/26 10:26:29;;;;;;;6.15;2.22;;;9.60;99.90;;;;;;5018639;28;20037;-70
2022/12/26 10:29:07;;;;;;;11.35;2.50;;;9.50;99.90;;;;;;5019487;28;20038;-69
2022/12/26 10:31:41;;;;;;;6.57;1.83;;;9.50;99.90;;;;;;5023933;28;20140;-68
2022/12/26 10:34:24;;;;;;;4.05;1.60;;;9.40;99.90;;;;;;5022554;28;20065;-69
2022/12/26 10:37:10;;;;;;;7.28;1.48;;;9.30;99.90;;;;;;5017315;28;20045;-69
2022/12/26 10:39:44;;;;;;;4.82;1.42;;;9.00;99.90;;;;;;5028283;28;20050;-68
2022/12/26 10:42:25;;;;;;;4.82;1.30;;;8.70;99.90;;;;;;5029497;28;20069;-69
2022/12/26 10:44:50;;;;;;;8.95;1.67;;;8.50;99.90;;;;;;5029335;28;20042;-69
2022/12/26 10:47:32;;;;;;;3.78;1.27;;;8.30;99.90;;;;;;5019012;28;20049;-69
2022/12/26 10:49:58;;;;;;;7.03;1.20;;;8.40;99.90;;;;;;5008604;28;20469;-69
2022/12/26 10:52:31;;;;;;;5.97;1.88;;;8.60;99.90;;;;;;5023119;28;20077;-69
2022/12/26 10:54:58;;;;;;;6.28;1.50;;;8.80;99.90;;;;;;5029626;28;20355;-69
2022/12/26 10:57:29;;;;;;;4.63;1.20;;;9.10;99.90;;;;;;5010676;28;20394;-69
2022/12/26 10:59:56;;;;;;;4.03;0.98;;;9.40;99.90;;;;;;5029459;28;20045;-69
2022/12/26 11:02:30;;;;;;;4.65;1.65;;;9.60;99.90;;;;;;5028563;28;20137;-69
2022/12/26 11:05:09;;;;;;;7.90;1.05;;;9.60;99.90;;;;;;5022450;28;20045;-69
2022/12/26 11:07:50;;;;;;;8.50;1.40;;;9.30;99.90;;;;;;5016612;28;20046;-69
2022/12/26 11:10:27;;;;;;;8.93;1.30;;;9.10;99.90;;;;;;5004999;28;20378;-70
2022/12/26 11:12:55;;;;;;;7.65;1.27;;;8.80;99.90;;;;;;5028986;28;20390;-69
2022/12/26 11:15:30;;;;;;;4.07;1.17;;;8.60;99.90;;;;;;5022415;28;20098;-69
2022/12/26 11:18:15;;;;;;;4.93;0.82;;;8.50;99.90;;;;;;5009414;28;20182;-69
2022/12/26 11:20:42;;;;;;;9.68;1.00;;;8.40;99.90;;;;;;5008272;28;20517;-69
2022/12/26 11:23:30;;;;;;;6.18;1.10;;;8.30;99.90;;;;;;5009952;28;20050;-69
2022/12/26 11:25:59;;;;;;;9.02;1.65;;;8.20;99.90;;;;;;5029615;28;20420;-69
2022/12/26 11:28:35;;;;;;;4.20;1.65;;;8.20;99.90;;;;;;5028505;28;20037;-69
2022/12/26 11:31:04;;;;;;;9.25;1.33;;;8.10;99.90;;;;;;5028936;28;20041;-69
2022/12/26 11:33:35;;;;;;;3.95;0.93;;;8.10;99.90;;;;;;5027746;28;20501;-68
2022/12/26 11:36:20;;;;;;;4.97;1.13;;;8.00;99.90;;;;;;5027172;28;20087;-69
2022/12/26 11:38:53;;;;;;;4.07;0.90;;;8.00;99.90;;;;;;5021504;28;20064;-69
2022/12/26 11:41:40;;;;;;;5.05;0.80;;;7.90;99.90;;;;;;5008879;28;20114;-70
2022/12/26 11:44:23;;;;;;;5.60;1.02;;;7.90;99.90;;;;;;4992363;28;20138;-69
2022/12/26 11:46:52;;;;;;;7.13;1.05;;;7.80;99.90;;;;;;5023348;28;20041;-69
2022/12/26 11:49:20;;;;;;;3.33;1.08;;;7.80;99.90;;;;;;5029227;28;20045;-68
2022/12/26 11:51:48;;;;;;;4.82;1.15;;;7.70;99.90;;;;;;5028137;28;20153;-68
2022/12/26 11:54:19;;;;;;;4.82;1.10;;;7.70;99.90;;;;;;5028127;28;20374;-69
2022/12/26 11:56:45;;;;;;;5.85;1.17;;;7.70;99.90;;;;;;5024953;28;20512;-69
2022/12/26 11:59:29;;;;;;;5.45;1.92;;;7.60;99.90;;;;;;5018323;28;20037;-69
2022/12/26 12:02:18;;;;;;;6.75;0.98;;;7.60;99.90;;;;;;5016368;28;20042;-69
2022/12/26 12:04:45;;;;;;;2.40;0.70;;;7.60;99.90;;;;;;5028960;27;20041;-69
2022/12/26 12:07:19;;;;;;;7.07;1.25;;;7.60;99.90;;;;;;5028237;28;20037;-68
2022/12/26 12:09:59;;;;;;;2.90;0.70;;;7.60;99.90;;;;;;5028355;28;20053;-68
2022/12/26 12:12:32;;;;;;;3.97;1.08;;;7.70;99.90;;;;;;5027900;28;20042;-70
2022/12/26 12:15:03;;;;;;;8.13;1.30;;;7.60;99.90;;;;;;5021137;28;20045;-68
2022/12/26 12:17:41;;;;;;;10.73;1.55;;;7.60;99.90;;;;;;5007902;28;20386;-69
2022/12/26 12:20:23;;;;;;;8.50;1.40;;;7.60;99.90;;;;;;5009162;28;20136;-69
2022/12/26 12:23:23;;;;;;;9.65;2.03;;;7.60;99.90;;;;;;5008828;28;20061;-69
2022/12/26 12:26:01;;;;;;;7.78;1.42;;;7.60;99.90;;;;;;5008658;28;20072;-69
2022/12/26 12:28:26;;;;;;;9.98;1.67;;;7.60;99.90;;;;;;5008099;28;20061;-70
2022/12/26 12:31:26;;;;;;;4.85;1.25;;;7.70;99.90;;;;;;5022328;28;20045;-70
2022/12/26 12:34:17;;;;;;;5.40;1.45;;;7.80;99.90;;;;;;5010884;28;20041;-69
2022/12/26 12:37:03;;;;;;;5.22;1.35;;;8.10;99.90;;;;;;5008627;28;20046;-68
2022/12/26 12:40:20;;;;;;;5.82;1.00;;;8.60;99.90;;;;;;5002643;28;20363;-69
2022/12/26 12:43:06;;;;;;;7.47;1.65;;;9.50;99.90;;;;;;5030856;28;20403;-68
2022/12/26 12:45:37;;;;;;;8.13;1.25;;;10.40;99.90;;;;;;5018125;28;20052;-69
2022/12/26 12:48:26;;;;;;;5.93;1.15;;;11.40;99.90;;;;;;5008262;28;20091;-69
2022/12/26 12:50:51;;;;;;;8.55;2.35;;;12.40;99.90;;;;;;5007922;28;20085;-69
2022/12/26 12:54:06;;;;;;;7.35;1.65;;;13.10;99.90;;;;;;5008176;28;20085;-67
2022/12/26 12:56:37;;;;;;;7.82;1.63;;;13.90;95.90;;;;;;5007106;28;20123;-67
2022/12/26 12:59:29;;;;;;;4.43;1.35;;;14.40;99.90;;;;;;5009248;28;20053;-67
2022/12/26 13:01:58;;;;;;;8.63;1.80;;;14.40;78.20;;;;;;5007369;28;20072;-67
2022/12/26 13:04:42;;;;;;;8.07;1.42;;;14.40;99.90;;;;;;5018602;28;20045;-67
2022/12/26 13:07:23;;;;;;;6.55;1.60;;;14.70;85.80;;;;;;5027431;28;20690;-68
2022/12/26 13:09:55;;;;;;;7.28;1.80;;;14.80;81.00;;;;;;5016809;28;20045;-67
2022/12/26 13:12:29;;;;;;;9.57;2.53;;;14.90;99.90;;;;;;4990570;28;20053;-67
2022/12/26 13:15:14;;;;;;;10.18;2.03;;;14.80;99.90;;;;;;5006482;28;20071;-67
2022/12/26 13:17:52;;;;;;;5.05;1.40;;;14.40;92.60;;;;;;5007230;28;20038;-67
2022/12/26 13:20:29;;;;;;;6.80;1.20;;;14.30;90.80;;;;;;5008118;28;20041;-67
2022/12/26 13:26:17;;;;;;;7.78;2.00;;;14.20;91.00;;;;;;5014045;28;20616;-67
2022/12/26 13:29:05;;;;;;;9.20;1.60;;;14.20;99.10;;;;;;5016642;28;20129;-67
2022/12/26 13:31:33;;;;;;;11.07;1.52;;;13.70;80.50;;;;;;5006321;28;20507;-69
2022/12/26 13:34:01;;;;;;;7.53;1.75;;;13.40;99.90;;;;;;5016181;28;20378;-66
2022/12/26 13:36:54;;;;;;;6.85;1.77;;;13.10;99.90;;;;;;5026841;28;20052;-67
2022/12/26 13:39:25;;;;;;;4.18;1.42;;;13.30;76.90;;;;;;5027609;28;20106;-67
2022/12/26 13:44:53;;;;;;;8.13;1.80;;;13.70;98.60;;;;;;5022190;28;20049;-67
2022/12/26 13:47:38;;;;;;;13.55;2.60;;;13.70;97.40;;;;;;5021935;28;20041;-66
2022/12/26 13:50:42;;;;;;;8.07;1.83;;;13.70;86.10;;;;;;5027797;28;20049;-66
2022/12/26 13:53:23;;;;;;;6.28;2.00;;;13.50;84.80;;;;;;5026541;28;20045;-67
2022/12/26 13:55:59;;;;;;;10.93;2.30;;;13.40;93.80;;;;;;5026464;28;20162;-66
2022/12/26 13:58:37;;;;;;;6.22;1.67;;;12.90;99.90;;;;;;5026974;28;20081;-66
2022/12/26 14:01:05;;;;;;;9.93;1.45;;;12.10;99.00;;;;;;5026844;28;20084;-66
2022/12/26 14:03:34;;;;;;;4.20;1.00;;;11.70;99.90;;;;;;5025416;28;20042;-67
2022/12/26 14:06:21;;;;;;;10.07;1.60;;;11.30;99.90;;;;;;5006976;28;20053;-66
2022/12/26 14:09:11;;;;;;;8.45;2.13;;;10.90;99.90;;;;;;5003663;28;20114;-66
2022/12/26 14:11:49;;;;;;;6.30;1.52;;;10.70;99.90;;;;;;5009983;28;20052;-67
2022/12/26 14:14:27;;;;;;;11.82;2.28;;;11.40;99.90;;;;;;5007617;28;20042;-67
2022/12/26 14:17:13;;;;;;;13.73;2.35;;;12.10;99.90;;;;;;5009504;28;20046;-66
2022/12/26 14:20:08;;;;;;;5.00;1.50;;;12.50;99.90;;;;;;5010398;28;20042;-67
2022/12/26 14:22:49;;;;;;;4.72;1.33;;;13.00;98.90;;;;;;5010264;28;20042;-67
2022/12/26 14:25:38;;;;;;;4.65;1.45;;;13.20;99.90;;;;;;5010754;28;20255;-66
2022/12/26 14:28:25;;;;;;;6.00;1.38;;;13.40;99.90;;;;;;5019473;28;20498;-67
2022/12/26 14:30:56;;;;;;;8.15;1.48;;;13.50;89.50;;;;;;5010249;28;20513;-67
2022/12/26 14:33:43;;;;;;;5.72;1.20;;;13.60;98.50;;;;;;5010045;28;20181;-67
2022/12/26 14:36:21;;;;;;;5.70;1.92;;;13.70;91.60;;;;;;5010084;28;20084;-68
2022/12/26 14:39:00;;;;;;;6.53;1.70;;;13.60;97.10;;;;;;5008804;28;20050;-66
2022/12/26 14:44:19;;;;;;;6.90;1.63;;;13.10;99.90;;;;;;5010747;28;20038;-66
2022/12/26 14:46:48;;;;;;;9.20;1.80;;;12.40;99.90;;;;;;5008923;28;20056;-66
2022/12/26 14:49:20;;;;;;;5.97;1.50;;;11.80;99.90;;;;;;5010563;28;20045;-66
2022/12/26 14:51:46;;;;;;;11.77;1.80;;;11.30;99.90;;;;;;5009556;28;20474;-66
2022/12/26 14:54:21;;;;;;;11.25;1.55;;;10.80;99.90;;;;;;4992967;28;20038;-66
2022/12/26 14:56:51;;;;;;;10.23;2.35;;;10.30;99.90;;;;;;5010051;28;20094;-66
2022/12/26 14:59:26;;;;;;;10.85;1.50;;;9.70;99.90;;;;;;5029960;28;20132;-66
2022/12/26 15:02:28;;;;;;;8.07;1.80;;;9.20;99.90;;;;;;5028261;28;20484;-66
2022/12/26 15:05:23;;;;;;;7.00;1.63;;;8.70;99.90;;;;;;5008736;28;20030;-66
2022/12/26 15:08:04;;;;;;;8.18;1.60;;;8.10;99.90;;;;;;5003368;28;20486;-66
2022/12/26 15:11:05;;;;;;;9.43;2.10;;;7.80;99.90;;;;;;5019198;28;20098;-66
2022/12/26 15:13:37;;;;;;;6.82;1.98;;;7.60;99.90;;;;;;5010947;28;20501;-67
2022/12/26 15:16:21;;;;;;;7.80;1.55;;;7.40;99.90;;;;;;5013244;28;20086;-66
2022/12/26 15:19:40;;;;;;;8.95;1.67;;;7.20;99.90;;;;;;5029220;28;20052;-66
2022/12/26 15:22:27;;;;;;;9.20;1.20;;;7.00;99.90;;;;;;5040220;28;20649;-66
2022/12/26 15:25:38;;;;;;;5.43;1.05;;;6.80;99.90;;;;;;5045806;28;20077;-66
2022/12/26 15:28:30;;;;;;;8.15;1.60;;;6.70;99.90;;;;;;5009051;28;20042;-66
2022/12/26 15:31:24;;;;;;;7.28;1.52;;;6.60;99.90;;;;;;5009171;28;20099;-65
2022/12/26 15:34:11;;;;;;;7.07;1.40;;;6.50;99.90;;;;;;5009182;28;20042;-66
2022/12/26 15:36:55;;;;;;;6.97;2.10;;;6.40;99.90;;;;;;5008970;28;20053;-66